Últimos artigos:
Visita à exposição MOTION no Guggenheim de Bilbao
MSK144, FT8… using an IC-9700 and WSJT-X
Resolvendo um problema de áudio no GNU Radio
Converter um número Real para o formato binário em vírgula flutuante segundo a Norma IEEE-754
VirtualBox sobre Debian 10 (buster) não encontra dispositivos USB
Falta de som no Morse Runner em Linux?
Últimas fotos:
Últimos METARs:
LPAZ 011630Z 13012KT 9999 FEW026 16/09 Q10...
LPFR 011630Z 21004KT 170V260 CAVOK 14/07 Q...
LPHR 011630Z 15009KT 9999 FEW019 SCT040 17...
LPLA 011600Z /////KT 9999 FEW024 16/12 Q10...
LPMA 011630Z 04010KT 310V110 9999 SCT018 F...
LPPD 011630Z 05006KT 020V080 9999 FEW020 B...
LPPR 011630Z 32007KT CAVOK 13/06 Q1027=
LPPS 011630Z 12012KT 9999 FEW015 18/10 Q10...
LPPT 011630Z VRB05KT CAVOK 13/05 Q1026=
Últimos QSOs:
2022/12/05-18:34 2m CN8JQ (MOHAMED)
2022/12/05-18:31 2m 7X3YOTA (YOUNGSTERS)
2022/12/05-18:29 2m EA7JHK (ANGEL)
2022/12/05-18:28 2m G3OUA (DAVE)
2022/11/06-21:07 2m CT1DMC (RUI)
2022/10/23-20:02 2m CT1ETE (PAULO)
  UTC
Rpi-6 CPU Temp: 0.0 °C (19Z)
IN51oq 1700Z /////KT //// 19/10 Q1027=
351898